Time;durP1;ratioP1;P1;durP2;ratioP2;P2;SDS_P1;SDS_P2;PMS_P1;PMS_P2;Temp;Humidity;BMP_temperature;BMP_pressure;BME280_temperature;BME280_humidity;BME280_pressure;Samples;Min_cycle;Max_cycle;Signal;HPM_P1;HPM_P2
2021/10/26 00:00:55;;;;;;;13.50;9.87;;;8.80;99.90;;;;;;4948808;29;20422;-93
2021/10/26 00:03:21;;;;;;;15.27;9.55;;;8.80;99.90;;;;;;4962204;28;20569;-92
2021/10/26 00:05:46;;;;;;;10.70;8.33;;;8.70;99.90;;;;;;4954167;29;20248;-92
2021/10/26 00:08:12;;;;;;;13.87;9.23;;;8.70;99.90;;;;;;4964145;29;20172;-93
2021/10/26 00:10:38;;;;;;;12.30;9.90;;;8.70;99.90;;;;;;4950365;29;20204;-92
2021/10/26 00:13:03;;;;;;;12.10;9.23;;;8.70;99.90;;;;;;4949277;29;20703;-92
2021/10/26 00:15:29;;;;;;;13.50;9.50;;;8.70;99.90;;;;;;4958054;29;20243;-93
2021/10/26 00:17:55;;;;;;;13.30;9.60;;;8.60;99.90;;;;;;4948420;29;20663;-93
2021/10/26 00:20:21;;;;;;;14.80;9.67;;;8.60;99.90;;;;;;4936566;29;20447;-94
2021/10/26 00:22:47;;;;;;;12.23;9.40;;;8.50;99.90;;;;;;4943399;29;20448;-93
2021/10/26 00:25:16;;;;;;;14.60;9.10;;;8.50;99.90;;;;;;4944198;29;20205;-93
2021/10/26 00:27:42;;;;;;;16.13;10.48;;;8.50;99.90;;;;;;4943501;29;20276;-93
2021/10/26 00:30:08;;;;;;;12.47;9.90;;;8.40;99.90;;;;;;4959329;29;20619;-91
2021/10/26 00:32:33;;;;;;;13.73;10.15;;;8.40;99.90;;;;;;4944117;29;20177;-92
2021/10/26 00:34:59;;;;;;;16.07;10.40;;;8.40;99.90;;;;;;4943745;29;20219;-93
2021/10/26 00:37:25;;;;;;;12.77;9.83;;;8.30;99.90;;;;;;4944694;29;20434;-91
2021/10/26 00:39:51;;;;;;;14.30;10.50;;;8.30;99.90;;;;;;4964350;29;20209;-92
2021/10/26 00:42:17;;;;;;;15.18;10.27;;;8.30;99.90;;;;;;4966153;29;20209;-93
2021/10/26 00:44:43;;;;;;;13.43;10.87;;;8.20;99.90;;;;;;4944019;29;20214;-92
2021/10/26 00:47:08;;;;;;;14.73;10.80;;;8.20;99.90;;;;;;4959157;29;20555;-94
2021/10/26 00:49:34;;;;;;;15.93;10.23;;;8.20;99.90;;;;;;4960454;29;20603;-92
2021/10/26 00:52:01;;;;;;;14.65;11.27;;;8.10;99.90;;;;;;4959830;29;20174;-90
2021/10/26 00:54:27;;;;;;;14.90;10.90;;;8.10;99.90;;;;;;4945775;29;20236;-92
2021/10/26 00:56:53;;;;;;;14.63;10.70;;;8.00;99.90;;;;;;4943375;29;20185;-93
2021/10/26 00:59:20;;;;;;;15.40;11.40;;;8.00;99.90;;;;;;4942792;29;20561;-92
2021/10/26 01:01:45;;;;;;;18.35;10.98;;;8.00;99.90;;;;;;4960009;29;20177;-93
2021/10/26 01:04:11;;;;;;;15.17;11.67;;;8.00;99.90;;;;;;4960821;29;20244;-93
2021/10/26 01:06:37;;;;;;;17.30;11.87;;;7.90;99.90;;;;;;4942552;29;20248;-93
2021/10/26 01:09:05;;;;;;;15.43;12.15;;;7.90;99.90;;;;;;4942575;29;20613;-94
2021/10/26 01:11:32;;;;;;;14.35;11.60;;;7.90;99.90;;;;;;4965619;29;20240;-93
2021/10/26 01:13:58;;;;;;;17.10;11.50;;;7.90;99.90;;;;;;4942502;29;20687;-93
2021/10/26 01:16:25;;;;;;;17.37;12.10;;;7.80;99.90;;;;;;4942510;29;20187;-93
2021/10/26 01:18:52;;;;;;;15.95;12.85;;;7.80;99.90;;;;;;4942704;29;20189;-95
2021/10/26 01:21:17;;;;;;;14.85;11.55;;;7.80;99.90;;;;;;4958892;29;20189;-94
2021/10/26 01:23:43;;;;;;;17.80;13.77;;;7.80;99.90;;;;;;4958301;29;20229;-93
2021/10/26 01:26:09;;;;;;;18.10;12.80;;;7.70;99.90;;;;;;4942661;29;20210;-92
2021/10/26 01:28:35;;;;;;;17.43;13.07;;;7.70;99.90;;;;;;4943305;29;20401;-94
2021/10/26 01:31:01;;;;;;;20.37;11.80;;;7.70;99.90;;;;;;4942600;29;20412;-94
2021/10/26 01:33:27;;;;;;;15.60;12.70;;;7.70;99.90;;;;;;4946407;29;20185;-93
2021/10/26 01:35:53;;;;;;;17.10;12.03;;;7.70;99.90;;;;;;4945748;29;20443;-94
2021/10/26 01:38:22;;;;;;;17.83;12.70;;;7.70;99.90;;;;;;4949784;29;20209;-94
2021/10/26 01:40:48;;;;;;;19.30;12.20;;;7.60;99.90;;;;;;4968295;29;20218;-93
2021/10/26 01:43:14;;;;;;;14.60;12.80;;;7.60;99.90;;;;;;4943979;29;20209;-93
2021/10/26 01:45:42;;;;;;;21.03;13.27;;;7.60;99.90;;;;;;4940867;29;20201;-93
2021/10/26 01:48:08;;;;;;;17.40;13.02;;;7.60;99.90;;;;;;4958223;29;20181;-93
2021/10/26 01:50:34;;;;;;;16.43;12.37;;;7.60;99.90;;;;;;4958179;29;20662;-93
2021/10/26 01:53:00;;;;;;;14.87;12.23;;;7.60;99.90;;;;;;4940709;29;20520;-93
2021/10/26 01:55:26;;;;;;;18.90;13.30;;;7.60;99.90;;;;;;4940634;29;20435;-93
2021/10/26 01:57:52;;;;;;;20.40;13.57;;;7.60;99.90;;;;;;4941019;29;20181;-93
2021/10/26 02:00:18;;;;;;;25.38;14.00;;;7.60;99.90;;;;;;4941312;29;20417;-93
2021/10/26 02:02:49;;;;;;;17.17;12.30;;;7.60;99.90;;;;;;4941661;29;20682;-94
2021/10/26 02:05:15;;;;;;;18.17;12.73;;;7.50;99.90;;;;;;4943195;29;20208;-92
2021/10/26 02:07:41;;;;;;;18.00;12.10;;;7.50;99.90;;;;;;4941106;29;20591;-92
2021/10/26 02:10:08;;;;;;;16.67;12.80;;;7.50;99.90;;;;;;4940880;29;20217;-92
2021/10/26 02:12:34;;;;;;;20.08;13.63;;;7.50;99.90;;;;;;4940454;29;20407;-92
2021/10/26 02:15:01;;;;;;;16.08;13.10;;;7.50;99.90;;;;;;4940109;29;20248;-93
2021/10/26 02:17:27;;;;;;;19.25;12.93;;;7.50;99.90;;;;;;4940668;29;20184;-91
2021/10/26 02:19:52;;;;;;;17.30;12.00;;;7.50;99.90;;;;;;4940348;29;20220;-94
2021/10/26 02:22:18;;;;;;;20.10;13.10;;;7.40;99.90;;;;;;4957407;29;20212;-93
2021/10/26 02:24:45;;;;;;;14.60;11.85;;;7.40;99.90;;;;;;4958078;29;20282;-94
2021/10/26 02:27:11;;;;;;;16.92;11.82;;;7.40;99.90;;;;;;4941554;29;20185;-93
2021/10/26 02:29:37;;;;;;;18.30;12.00;;;7.40;99.90;;;;;;4943951;29;20216;-92
2021/10/26 02:32:04;;;;;;;20.37;13.47;;;7.40;99.90;;;;;;4946454;29;20216;-93
2021/10/26 02:34:30;;;;;;;19.08;13.32;;;7.30;99.90;;;;;;4944545;29;20220;-94
2021/10/26 02:36:56;;;;;;;18.83;14.13;;;7.30;99.90;;;;;;4962687;29;20191;-93
2021/10/26 02:39:22;;;;;;;16.30;12.70;;;7.30;99.90;;;;;;4940554;29;20220;-93
2021/10/26 02:41:48;;;;;;;19.58;13.13;;;7.30;99.90;;;;;;4957168;29;20252;-94
2021/10/26 02:44:14;;;;;;;17.30;12.17;;;7.30;99.90;;;;;;4940090;29;20247;-93
2021/10/26 02:46:39;;;;;;;14.00;12.03;;;7.30;99.90;;;;;;4957803;29;20385;-93
2021/10/26 02:49:05;;;;;;;19.87;13.60;;;7.20;99.90;;;;;;4957270;29;20196;-93
2021/10/26 02:51:31;;;;;;;23.07;14.97;;;7.20;99.90;;;;;;4939954;29;20458;-92
2021/10/26 02:53:57;;;;;;;18.93;13.27;;;7.20;99.90;;;;;;4939680;29;20260;-93
2021/10/26 02:56:23;;;;;;;16.60;13.20;;;7.20;99.90;;;;;;4940190;29;20402;-94
2021/10/26 02:58:48;;;;;;;18.03;13.20;;;7.10;99.90;;;;;;4957399;29;20643;-94
2021/10/26 03:01:15;;;;;;;16.00;12.87;;;7.10;99.90;;;;;;4946175;29;20193;-93
2021/10/26 03:03:41;;;;;;;17.85;13.05;;;7.10;99.90;;;;;;4959700;29;20487;-93
2021/10/26 03:06:06;;;;;;;18.43;13.00;;;7.10;99.90;;;;;;4948028;29;20225;-94
2021/10/26 03:08:32;;;;;;;18.20;14.33;;;7.10;99.90;;;;;;4968559;28;20181;-93
2021/10/26 03:10:58;;;;;;;19.30;13.50;;;7.10;99.90;;;;;;4959970;29;20248;-93
2021/10/26 03:13:24;;;;;;;14.17;11.40;;;7.10;99.90;;;;;;4956695;28;20402;-94
2021/10/26 03:15:50;;;;;;;18.20;13.90;;;7.10;99.90;;;;;;4941021;29;20205;-92
2021/10/26 03:18:16;;;;;;;15.10;12.20;;;7.00;99.90;;;;;;4940576;29;20626;-93
2021/10/26 03:20:42;;;;;;;15.27;12.32;;;7.00;99.90;;;;;;4940036;29;20256;-94
2021/10/26 03:23:09;;;;;;;16.23;11.90;;;7.00;99.90;;;;;;4939704;29;20252;-92
2021/10/26 03:25:35;;;;;;;16.92;12.55;;;7.00;99.90;;;;;;4957198;29;20713;-95
2021/10/26 03:28:00;;;;;;;18.30;12.17;;;7.00;99.90;;;;;;4940307;29;20220;-93
2021/10/26 03:30:26;;;;;;;19.60;11.63;;;7.00;99.90;;;;;;4939806;29;20197;-93
2021/10/26 03:32:52;;;;;;;16.33;11.70;;;6.90;99.90;;;;;;4940688;29;20183;-94
2021/10/26 03:35:18;;;;;;;17.67;11.80;;;6.90;99.90;;;;;;4942712;29;20460;-93
2021/10/26 03:37:44;;;;;;;16.60;11.48;;;6.90;99.90;;;;;;4939568;29;20220;-93
2021/10/26 03:40:12;;;;;;;18.05;12.20;;;6.90;99.90;;;;;;4939722;29;20294;-94
2021/10/26 03:42:43;;;;;;;20.55;13.90;;;6.90;99.90;;;;;;4939681;29;20596;-94
2021/10/26 03:45:10;;;;;;;17.02;12.00;;;7.00;99.90;;;;;;4956968;29;20237;-92
2021/10/26 03:47:45;;;;;;;16.60;11.27;;;7.00;99.90;;;;;;4939665;29;20183;-94
2021/10/26 03:50:11;;;;;;;14.30;10.38;;;7.00;99.90;;;;;;4938952;28;20209;-92
2021/10/26 03:52:37;;;;;;;14.30;10.95;;;7.00;99.90;;;;;;4947422;29;20660;-93
2021/10/26 03:55:05;;;;;;;15.20;11.53;;;7.00;99.90;;;;;;4947060;29;20198;-93
2021/10/26 03:57:31;;;;;;;16.75;11.38;;;7.00;99.90;;;;;;4958115;29;20415;-92
2021/10/26 03:59:56;;;;;;;13.97;11.13;;;7.00;99.90;;;;;;4939493;28;20215;-93
2021/10/26 04:02:27;;;;;;;16.10;10.87;;;7.00;99.90;;;;;;4940015;29;20240;-93
2021/10/26 04:04:58;;;;;;;15.82;11.15;;;7.00;99.90;;;;;;4940076;29;20438;-94
2021/10/26 04:07:25;;;;;;;15.32;10.80;;;7.00;99.90;;;;;;4941909;29;20264;-94
2021/10/26 04:10:02;;;;;;;18.95;10.45;;;7.00;99.90;;;;;;4960941;29;20227;-93
2021/10/26 04:12:28;;;;;;;19.05;12.23;;;7.00;99.90;;;;;;4945541;29;20181;-94
2021/10/26 04:14:56;;;;;;;18.40;10.40;;;7.00;99.90;;;;;;4942993;29;20240;-94
2021/10/26 04:17:22;;;;;;;14.70;10.05;;;7.00;99.90;;;;;;4960444;28;20260;-93
2021/10/26 04:19:49;;;;;;;14.43;11.07;;;7.00;99.90;;;;;;4941949;29;20364;-93
2021/10/26 04:22:17;;;;;;;13.05;10.32;;;7.00;99.90;;;;;;4942226;29;20204;-91
2021/10/26 04:24:49;;;;;;;18.13;10.55;;;7.10;99.90;;;;;;4942671;29;20689;-93
2021/10/26 04:27:16;;;;;;;12.35;9.90;;;7.10;99.90;;;;;;4957930;29;20259;-92
2021/10/26 04:29:42;;;;;;;11.80;10.00;;;7.10;99.90;;;;;;4942385;29;20201;-93
2021/10/26 04:32:10;;;;;;;17.30;10.00;;;7.20;99.90;;;;;;4944306;29;20521;-93
2021/10/26 04:34:36;;;;;;;14.50;10.35;;;7.20;99.90;;;;;;4951752;29;20474;-93
2021/10/26 04:37:03;;;;;;;12.77;9.77;;;7.20;99.90;;;;;;4949587;29;20192;-93
2021/10/26 04:39:28;;;;;;;19.17;10.73;;;7.20;99.90;;;;;;4939956;29;20206;-93
2021/10/26 04:41:54;;;;;;;15.20;10.50;;;7.20;99.90;;;;;;4940714;29;20663;-94
2021/10/26 04:44:20;;;;;;;13.70;10.18;;;7.20;99.90;;;;;;4953722;29;20225;-95
2021/10/26 04:46:46;;;;;;;11.63;9.40;;;7.20;99.90;;;;;;4942439;29;20527;-92
2021/10/26 04:49:12;;;;;;;14.10;10.47;;;7.20;99.90;;;;;;4941263;29;20944;-94
2021/10/26 04:51:38;;;;;;;14.97;10.53;;;7.10;99.90;;;;;;4942360;29;20272;-93
2021/10/26 04:54:03;;;;;;;14.63;10.03;;;7.10;99.90;;;;;;4958539;29;20635;-94
2021/10/26 04:56:29;;;;;;;13.83;10.70;;;7.10;99.90;;;;;;4959906;29;20176;-92
2021/10/26 04:58:55;;;;;;;14.03;10.90;;;7.10;99.90;;;;;;4959624;29;20268;-91
2021/10/26 05:01:20;;;;;;;15.27;10.03;;;7.10;99.90;;;;;;4943489;29;20204;-93
2021/10/26 05:03:46;;;;;;;24.13;11.57;;;7.10;99.90;;;;;;4959158;29;20227;-89
2021/10/26 05:06:12;;;;;;;13.97;10.53;;;7.00;99.90;;;;;;4941672;29;20832;-94
2021/10/26 05:08:40;;;;;;;16.53;10.10;;;7.00;99.90;;;;;;4958138;29;20563;-91
2021/10/26 05:11:06;;;;;;;20.65;10.68;;;7.00;99.90;;;;;;4959412;28;20765;-93
2021/10/26 05:13:32;;;;;;;16.67;10.60;;;6.90;99.90;;;;;;4939916;28;20209;-95
2021/10/26 05:15:58;;;;;;;13.37;9.40;;;6.90;99.90;;;;;;4943040;29;20209;-91
2021/10/26 05:18:25;;;;;;;15.20;11.00;;;6.90;99.90;;;;;;4937961;29;20467;-94
2021/10/26 05:20:53;;;;;;;12.80;10.18;;;6.90;99.90;;;;;;4921479;29;20202;-95
2021/10/26 05:23:19;;;;;;;16.35;12.52;;;6.90;99.90;;;;;;4921131;29;20225;-93
2021/10/26 05:25:49;;;;;;;14.65;11.15;;;6.90;99.90;;;;;;4923400;29;20234;-94
2021/10/26 05:28:15;;;;;;;18.00;11.25;;;6.90;99.90;;;;;;4940138;29;20592;-92
2021/10/26 05:30:41;;;;;;;14.90;10.57;;;6.80;99.90;;;;;;4925295;29;20202;-93
2021/10/26 05:33:08;;;;;;;17.13;12.00;;;6.80;99.90;;;;;;4922286;29;20428;-92
2021/10/26 05:35:34;;;;;;;14.48;11.65;;;6.80;99.90;;;;;;4921707;29;20440;-94
2021/10/26 05:38:00;;;;;;;15.70;11.30;;;6.70;99.90;;;;;;4921620;29;20201;-93
2021/10/26 05:40:26;;;;;;;17.00;11.47;;;6.70;99.90;;;;;;4938199;29;20465;-93
2021/10/26 05:42:52;;;;;;;14.47;11.63;;;6.70;99.90;;;;;;4938948;29;20710;-92
2021/10/26 05:45:18;;;;;;;17.30;11.73;;;6.60;99.90;;;;;;4922223;29;20449;-93
2021/10/26 05:47:45;;;;;;;16.63;11.10;;;6.60;99.90;;;;;;4921758;29;20188;-93
2021/10/26 05:50:11;;;;;;;22.70;12.18;;;6.60;99.90;;;;;;4922262;29;20483;-92
2021/10/26 05:52:37;;;;;;;16.77;11.82;;;6.60;99.90;;;;;;4928584;29;20186;-92
2021/10/26 05:55:03;;;;;;;13.93;11.40;;;6.60;99.90;;;;;;4933027;29;20316;-94
2021/10/26 05:57:31;;;;;;;15.40;12.00;;;6.60;99.90;;;;;;4941775;29;20220;-94
2021/10/26 06:00:00;;;;;;;19.92;12.43;;;6.60;99.90;;;;;;4921253;29;20216;-92
2021/10/26 06:02:26;;;;;;;21.98;13.05;;;6.60;99.90;;;;;;4939233;29;20236;-93
2021/10/26 06:04:52;;;;;;;17.07;12.57;;;6.60;99.90;;;;;;4922988;29;20210;-94
2021/10/26 06:07:18;;;;;;;17.25;12.48;;;6.60;99.90;;;;;;4917555;29;20942;-93
2021/10/26 06:09:44;;;;;;;15.95;11.35;;;6.60;99.90;;;;;;4918612;29;20213;-93
2021/10/26 06:12:16;;;;;;;15.77;11.87;;;6.60;99.90;;;;;;4929850;29;20177;-94
2021/10/26 06:14:45;;;;;;;15.18;11.90;;;6.60;99.90;;;;;;4934616;28;20241;-93
2021/10/26 06:17:11;;;;;;;14.80;11.90;;;6.60;99.90;;;;;;4938361;29;20259;-93
2021/10/26 06:19:36;;;;;;;19.30;13.70;;;6.70;99.90;;;;;;4955951;29;20264;-93
2021/10/26 06:22:02;;;;;;;24.43;13.77;;;6.70;99.90;;;;;;4941881;29;20922;-92
2021/10/26 06:24:28;;;;;;;21.80;14.37;;;6.70;99.90;;;;;;4952637;28;20219;-92
2021/10/26 06:26:54;;;;;;;21.70;13.30;;;6.80;99.90;;;;;;4937802;28;20759;-91
2021/10/26 06:29:20;;;;;;;20.20;13.10;;;6.80;99.90;;;;;;4959864;28;20224;-93
2021/10/26 06:31:45;;;;;;;19.40;12.67;;;6.90;99.90;;;;;;4954794;28;20497;-92
2021/10/26 06:34:11;;;;;;;20.17;13.17;;;6.90;99.90;;;;;;4938828;29;20480;-94
2021/10/26 06:36:37;;;;;;;20.40;12.50;;;7.00;99.90;;;;;;4957987;28;20256;-92
2021/10/26 06:39:03;;;;;;;18.80;12.90;;;7.00;99.90;;;;;;4944284;28;20505;-93
2021/10/26 06:41:29;;;;;;;19.17;12.95;;;7.10;99.90;;;;;;4962812;28;20181;-92
2021/10/26 06:43:58;;;;;;;13.83;11.40;;;7.10;99.90;;;;;;4937850;29;20227;-93
2021/10/26 06:46:24;;;;;;;22.55;12.73;;;7.20;99.90;;;;;;4937596;28;20182;-93
2021/10/26 06:48:49;;;;;;;17.77;11.43;;;7.30;99.90;;;;;;4957970;28;20215;-94
2021/10/26 06:51:15;;;;;;;17.60;11.37;;;7.40;99.90;;;;;;4949142;28;20223;-93
2021/10/26 06:53:41;;;;;;;21.90;12.70;;;7.60;99.90;;;;;;4938934;29;20270;-93
2021/10/26 06:56:15;;;;;;;15.98;12.10;;;7.70;99.90;;;;;;4941849;29;20214;-91
2021/10/26 06:58:42;;;;;;;17.70;11.25;;;7.70;99.90;;;;;;4942317;29;20210;-94
2021/10/26 07:01:10;;;;;;;19.20;12.73;;;7.80;99.90;;;;;;4941745;29;20194;-94
2021/10/26 07:03:37;;;;;;;24.58;11.75;;;7.90;99.90;;;;;;4939932;29;20237;-93
2021/10/26 07:06:06;;;;;;;16.48;11.00;;;8.10;99.90;;;;;;4953817;29;20203;-92
2021/10/26 07:08:33;;;;;;;16.33;11.32;;;8.40;99.90;;;;;;4955368;28;20604;-91
2021/10/26 07:10:59;;;;;;;39.97;24.88;;;8.90;99.90;;;;;;4940557;28;20209;-90
2021/10/26 07:13:26;;;;;;;17.20;13.07;;;9.50;99.90;;;;;;4961074;28;20215;-92
2021/10/26 07:15:52;;;;;;;19.13;11.38;;;9.90;99.90;;;;;;4929594;28;20200;-91
2021/10/26 07:18:18;;;;;;;16.60;10.73;;;10.10;99.90;;;;;;4937974;28;20197;-93
2021/10/26 07:20:44;;;;;;;15.13;11.87;;;10.30;99.90;;;;;;4939802;28;20689;-92
2021/10/26 07:23:13;;;;;;;21.43;13.53;;;10.30;99.90;;;;;;4963065;28;20227;-93
2021/10/26 07:25:38;;;;;;;15.65;11.25;;;10.30;99.90;;;;;;4938208;28;20209;-91
2021/10/26 07:28:04;;;;;;;16.23;11.57;;;10.40;99.90;;;;;;4935931;28;20212;-90
2021/10/26 07:30:36;;;;;;;14.97;11.13;;;10.50;99.90;;;;;;4935578;28;20201;-89
2021/10/26 07:33:04;;;;;;;17.30;11.07;;;10.60;99.90;;;;;;4954371;28;20178;-91
2021/10/26 07:35:39;;;;;;;14.93;11.88;;;11.00;99.90;;;;;;4936475;28;20293;-92
2021/10/26 07:38:06;;;;;;;12.80;9.98;;;11.40;99.90;;;;;;4943636;28;20176;-93
2021/10/26 07:40:32;;;;;;;14.38;11.18;;;11.90;99.90;;;;;;4938839;28;20197;-93
2021/10/26 07:42:58;;;;;;;13.50;9.60;;;12.40;99.90;;;;;;4937583;29;20225;-92
2021/10/26 07:45:24;;;;;;;17.33;10.38;;;13.00;99.90;;;;;;4963274;28;20443;-94
2021/10/26 07:47:52;;;;;;;14.97;11.00;;;13.90;99.90;;;;;;4944297;28;20185;-91
2021/10/26 07:50:19;;;;;;;12.77;10.50;;;14.70;99.90;;;;;;4943798;28;20204;-94
2021/10/26 07:52:48;;;;;;;14.53;11.37;;;15.50;99.40;;;;;;4968056;28;20455;-95
2021/10/26 07:55:14;;;;;;;15.70;11.40;;;16.30;97.40;;;;;;4969957;28;20501;-92
2021/10/26 07:57:40;;;;;;;14.47;10.47;;;16.90;95.40;;;;;;4945727;28;20466;-95
2021/10/26 08:00:07;;;;;;;15.37;10.00;;;17.20;94.60;;;;;;4929479;28;20474;-92
2021/10/26 08:02:33;;;;;;;14.73;10.70;;;17.50;94.10;;;;;;4944378;28;20896;-95
2021/10/26 08:05:00;;;;;;;14.10;12.30;;;17.80;93.00;;;;;;4933786;29;20498;-94
2021/10/26 08:07:26;;;;;;;15.77;11.70;;;17.90;92.00;;;;;;4939276;28;20189;-94
2021/10/26 08:09:59;;;;;;;13.73;9.60;;;17.80;92.00;;;;;;4930110;28;20549;-96
2021/10/26 08:12:26;;;;;;;13.83;9.67;;;17.90;91.90;;;;;;4935677;29;20189;-94
2021/10/26 08:14:54;;;;;;;12.47;9.87;;;18.10;91.50;;;;;;4940605;28;20487;-93
2021/10/26 08:17:20;;;;;;;15.10;10.37;;;18.40;90.60;;;;;;4956873;29;20437;-96
2021/10/26 08:19:50;;;;;;;12.13;9.30;;;18.50;90.00;;;;;;4949792;29;20455;-96
2021/10/26 08:22:19;;;;;;;12.10;9.90;;;18.70;90.40;;;;;;4941624;29;20488;-95
2021/10/26 08:24:51;;;;;;;10.30;9.23;;;18.90;89.60;;;;;;4964322;28;20454;-93
2021/10/26 08:27:21;;;;;;;11.43;9.80;;;18.60;89.10;;;;;;4933510;29;20463;-94
2021/10/26 08:35:15;;;;;;;10.50;9.20;;;17.00;90.90;;;;;;4959265;28;20498;-94
2021/10/26 08:37:39;;;;;;;11.20;8.53;;;16.40;91.20;;;;;;4948961;28;20217;-92
2021/10/26 08:40:07;;;;;;;13.87;10.67;;;15.80;92.30;;;;;;4946535;29;20609;-92
2021/10/26 08:42:36;;;;;;;12.63;10.20;;;15.50;92.50;;;;;;4937997;29;20446;-95
2021/10/26 08:45:03;;;;;;;10.77;8.20;;;15.20;92.80;;;;;;4947915;28;20538;-93
2021/10/26 08:47:31;;;;;;;10.80;9.43;;;14.90;93.10;;;;;;4944320;29;20443;-94
2021/10/26 08:49:57;;;;;;;12.37;9.20;;;14.50;93.30;;;;;;4940849;29;20482;-93
2021/10/26 08:52:24;;;;;;;11.80;9.07;;;14.20;94.00;;;;;;4936884;28;20494;-95
2021/10/26 08:54:59;;;;;;;11.17;8.10;;;13.90;94.50;;;;;;4941411;28;20443;-94
2021/10/26 08:57:27;;;;;;;11.83;8.03;;;13.80;95.00;;;;;;4939452;29;20441;-92
2021/10/26 09:00:05;;;;;;;9.13;7.27;;;13.80;94.90;;;;;;4938582;29;20455;-92
2021/10/26 09:02:50;;;;;;;10.13;6.83;;;13.80;94.80;;;;;;4930643;29;20486;-96
2021/10/26 09:05:25;;;;;;;9.10;7.00;;;13.80;94.30;;;;;;4946530;29;20447;-96
2021/10/26 09:08:05;;;;;;;9.23;7.10;;;13.80;93.40;;;;;;4943638;29;20553;-93
2021/10/26 09:10:32;;;;;;;18.23;9.80;;;13.70;93.60;;;;;;4943190;29;20447;-95
2021/10/26 09:16:47;;;;;;;12.37;6.93;;;13.70;94.20;;;;;;4979090;28;20474;-95
2021/10/26 09:19:17;;;;;;;8.47;7.20;;;13.80;94.10;;;;;;4959403;28;20483;-96
2021/10/26 09:22:05;;;;;;;7.50;6.10;;;14.00;94.10;;;;;;4947703;29;20419;-96
2021/10/26 09:24:36;;;;;;;7.00;5.97;;;14.10;93.80;;;;;;4951367;29;20486;-96
2021/10/26 09:27:18;;;;;;;9.03;6.43;;;14.20;93.30;;;;;;4955755;29;20518;-96
2021/10/26 09:29:58;;;;;;;9.93;7.10;;;14.40;93.20;;;;;;4970051;28;20473;-96
2021/10/26 09:32:35;;;;;;;10.10;6.40;;;14.40;93.20;;;;;;4948785;28;20438;-95
2021/10/26 09:35:17;;;;;;;7.83;6.70;;;14.40;93.10;;;;;;4949749;29;20498;-96
2021/10/26 09:37:57;;;;;;;13.73;6.60;;;14.40;93.20;;;;;;4951705;29;20492;-95
2021/10/26 09:40:43;;;;;;;7.33;6.63;;;14.40;93.20;;;;;;4950491;29;20462;-96
2021/10/26 09:43:13;;;;;;;9.60;7.10;;;14.50;93.40;;;;;;4953240;28;20558;-94
2021/10/26 09:45:48;;;;;;;12.00;7.80;;;14.70;93.40;;;;;;4967978;28;20447;-95
2021/10/26 09:48:20;;;;;;;8.23;7.17;;;14.70;92.80;;;;;;4954714;29;20443;-96
2021/10/26 09:50:47;;;;;;;6.77;6.00;;;14.70;93.30;;;;;;4942925;29;20525;-93
2021/10/26 09:53:14;;;;;;;12.93;7.47;;;14.60;93.10;;;;;;4955659;28;20443;-93
2021/10/26 09:55:43;;;;;;;8.20;6.13;;;14.60;93.60;;;;;;4943323;28;20458;-92
2021/10/26 09:58:15;;;;;;;8.60;7.00;;;14.60;93.80;;;;;;4946039;28;20455;-93
2021/10/26 10:00:44;;;;;;;8.73;6.93;;;14.60;93.70;;;;;;4946773;29;20474;-94
2021/10/26 10:03:36;;;;;;;8.60;7.20;;;14.60;93.60;;;;;;4937290;28;20479;-94
2021/10/26 10:06:09;;;;;;;9.03;6.23;;;14.60;93.20;;;;;;4951875;29;20474;-92
2021/10/26 10:08:39;;;;;;;8.30;7.43;;;14.60;93.40;;;;;;4947957;29;20849;-95
2021/10/26 10:11:05;;;;;;;9.63;6.70;;;14.50;93.50;;;;;;4939727;29;20451;-93
2021/10/26 10:13:31;;;;;;;8.10;6.10;;;14.50;93.60;;;;;;4948750;28;20968;-95
2021/10/26 10:15:59;;;;;;;7.43;6.50;;;14.50;93.90;;;;;;4935038;29;21076;-92
2021/10/26 10:18:27;;;;;;;6.80;6.10;;;14.50;93.70;;;;;;4947896;28;20440;-96
2021/10/26 10:20:55;;;;;;;8.33;6.50;;;14.60;93.80;;;;;;4948346;29;20500;-96
2021/10/26 10:23:30;;;;;;;8.33;6.23;;;14.60;93.80;;;;;;4951602;28;20474;-96
2021/10/26 10:26:07;;;;;;;;;;;;;;;;;;;;;
2021/10/26 10:28:44;;;;;;;6.97;6.27;;;14.60;93.90;;;;;;4956497;28;20473;-96
2021/10/26 10:31:16;;;;;;;8.23;6.97;;;14.70;93.60;;;;;;4936603;28;20832;-96
2021/10/26 10:33:50;;;;;;;9.57;7.27;;;14.70;94.00;;;;;;4935620;28;20451;-96
2021/10/26 10:36:39;;;;;;;7.87;5.83;;;14.80;93.90;;;;;;4947314;29;20734;-96
2021/10/26 10:39:10;;;;;;;9.03;6.83;;;14.80;93.80;;;;;;4943639;29;20470;-93
2021/10/26 10:41:40;;;;;;;9.60;6.17;;;14.90;94.20;;;;;;4943227;29;20502;-92
2021/10/26 10:44:32;;;;;;;8.70;7.50;;;14.90;93.80;;;;;;4944573;29;20463;-95
2021/10/26 10:47:10;;;;;;;8.33;5.30;;;15.00;93.80;;;;;;4944568;29;20413;-96
2021/10/26 10:49:42;;;;;;;8.53;7.07;;;15.10;93.40;;;;;;4939831;29;20891;-96
2021/10/26 10:52:13;;;;;;;7.30;6.60;;;15.10;93.60;;;;;;4938516;28;20466;-95
2021/10/26 10:54:53;;;;;;;9.20;7.10;;;15.20;93.60;;;;;;4934486;29;20459;-95
2021/10/26 10:57:38;;;;;;;8.60;7.07;;;15.20;93.60;;;;;;4926453;28;20542;-92
2021/10/26 11:00:27;;;;;;;9.60;7.30;;;15.20;93.70;;;;;;4939701;29;20518;-93
2021/10/26 11:02:58;;;;;;;7.77;6.90;;;15.20;93.40;;;;;;4960626;28;20470;-95
2021/10/26 11:05:36;;;;;;;8.57;7.57;;;15.30;93.80;;;;;;4948855;28;20452;-96
2021/10/26 11:08:04;;;;;;;8.97;7.17;;;15.30;93.70;;;;;;4954719;29;20414;-93
2021/10/26 11:10:48;;;;;;;10.67;8.03;;;15.40;93.60;;;;;;4943606;29;20435;-95
2021/10/26 11:13:18;;;;;;;9.30;6.97;;;15.30;93.60;;;;;;4951460;28;20517;-94
2021/10/26 11:15:47;;;;;;;7.53;6.83;;;15.30;93.50;;;;;;4957105;28;20538;-91
2021/10/26 11:18:35;;;;;;;12.53;7.53;;;15.30;93.70;;;;;;4937468;28;20443;-94
2021/10/26 11:21:02;;;;;;;10.03;6.70;;;15.30;94.00;;;;;;4951417;28;20454;-96
2021/10/26 11:23:32;;;;;;;8.80;7.90;;;15.40;94.00;;;;;;4953823;28;20483;-94
2021/10/26 11:26:04;;;;;;;9.80;7.40;;;15.40;93.60;;;;;;4961978;28;20906;-96
2021/10/26 11:28:30;;;;;;;9.93;7.30;;;15.50;93.80;;;;;;4946505;29;20494;-94
2021/10/26 11:31:00;;;;;;;8.83;7.03;;;15.50;93.80;;;;;;4966644;28;20459;-96
2021/10/26 11:33:26;;;;;;;8.70;7.20;;;15.50;93.80;;;;;;4952990;29;20450;-93
2021/10/26 11:36:05;;;;;;;7.73;6.50;;;15.50;93.80;;;;;;4957982;28;20547;-95
2021/10/26 11:38:43;;;;;;;9.97;7.30;;;15.50;93.70;;;;;;4946440;28;20521;-94
2021/10/26 11:41:15;;;;;;;9.77;7.33;;;15.50;93.40;;;;;;4956749;28;20510;-95
2021/10/26 11:43:50;;;;;;;11.77;7.70;;;15.50;93.10;;;;;;4946686;28;20464;-94
2021/10/26 11:46:19;;;;;;;8.40;6.70;;;15.50;93.00;;;;;;4937927;28;20478;-95
2021/10/26 11:48:58;;;;;;;6.90;6.20;;;15.50;93.00;;;;;;4955407;28;20482;-94
2021/10/26 11:51:34;;;;;;;10.53;7.83;;;15.50;92.80;;;;;;4951676;28;20423;-96
2021/10/26 11:54:24;;;;;;;9.83;7.20;;;15.50;92.80;;;;;;4948771;29;20481;-95
2021/10/26 11:56:52;;;;;;;7.30;6.40;;;15.50;92.80;;;;;;4950463;28;20481;-92
2021/10/26 11:59:25;;;;;;;8.27;6.63;;;15.50;92.90;;;;;;4944314;29;20976;-95
2021/10/26 12:01:54;;;;;;;7.67;6.67;;;15.50;92.80;;;;;;4972941;28;20437;-96
2021/10/26 12:04:35;;;;;;;10.10;7.13;;;15.60;92.70;;;;;;4984151;23;20493;-68
2021/10/26 12:07:10;;;;;;;7.73;6.50;;;15.60;92.80;;;;;;4956982;28;20426;-69
2021/10/26 12:09:47;;;;;;;7.60;6.83;;;15.60;92.70;;;;;;4957288;28;20583;-70
2021/10/26 12:12:26;;;;;;;9.30;6.90;;;15.60;92.80;;;;;;4974702;28;20429;-70
2021/10/26 12:14:54;;;;;;;7.90;6.60;;;15.60;92.90;;;;;;4967060;28;20466;-70
2021/10/26 12:17:36;;;;;;;9.63;6.97;;;15.60;93.00;;;;;;4957284;28;20452;-69
2021/10/26 12:20:14;;;;;;;9.20;6.97;;;15.60;92.90;;;;;;4972462;28;20478;-68
2021/10/26 12:22:43;;;;;;;9.83;6.90;;;15.60;93.20;;;;;;4973214;28;20493;-68
2021/10/26 12:25:14;;;;;;;14.00;9.00;;;15.60;93.20;;;;;;4959115;28;20903;-70
2021/10/26 12:27:43;;;;;;;13.87;8.77;;;15.60;93.30;;;;;;4951073;28;20927;-68
2021/10/26 12:30:11;;;;;;;9.17;7.87;;;15.70;93.20;;;;;;4969013;28;20482;-69
2021/10/26 12:32:40;;;;;;;9.50;7.03;;;15.70;93.20;;;;;;4950257;28;20485;-68
2021/10/26 12:35:12;;;;;;;10.50;7.70;;;15.70;93.10;;;;;;4951616;28;20998;-69
2021/10/26 12:37:38;;;;;;;13.20;7.13;;;15.70;93.10;;;;;;4952600;28;20485;-68
2021/10/26 12:40:18;;;;;;;9.67;6.70;;;15.80;93.40;;;;;;4953365;28;20714;-70
2021/10/26 12:43:01;;;;;;;9.93;8.00;;;15.80;93.30;;;;;;4962630;28;20502;-68
2021/10/26 12:45:37;;;;;;;9.23;7.03;;;15.80;92.80;;;;;;4951118;28;20469;-69
2021/10/26 12:48:05;;;;;;;8.60;6.90;;;15.80;93.10;;;;;;4934855;28;20541;-70
2021/10/26 12:51:09;;;;;;;10.03;6.53;;;15.90;93.30;;;;;;4952880;28;20949;-69
2021/10/26 12:53:35;;;;;;;8.60;6.77;;;15.90;92.90;;;;;;4968484;28;20492;-68
2021/10/26 12:56:19;;;;;;;8.77;6.63;;;15.90;93.00;;;;;;4957017;28;20508;-72
2021/10/26 12:59:06;;;;;;;8.80;7.43;;;15.90;93.00;;;;;;4954892;28;20469;-70